sensor_id;sensor_type;location;lat;lon;timestamp;P1;durP1;ratioP1;P2;durP2;ratioP2
29196;SDS011;62796;42.654;23.316;2023-07-20T00:01:04;10.43;;;2.67;;
29196;SDS011;62796;42.654;23.316;2023-07-20T00:03:29;9.00;;;3.10;;
29196;SDS011;62796;42.654;23.316;2023-07-20T00:05:55;9.18;;;2.92;;
29196;SDS011;62796;42.654;23.316;2023-07-20T00:08:20;12.25;;;2.97;;
29196;SDS011;62796;42.654;23.316;2023-07-20T00:10:46;10.27;;;3.20;;
29196;SDS011;62796;42.654;23.316;2023-07-20T00:13:11;11.38;;;3.70;;
29196;SDS011;62796;42.654;23.316;2023-07-20T00:15:37;6.90;;;3.00;;
29196;SDS011;62796;42.654;23.316;2023-07-20T00:18:03;13.90;;;3.53;;
29196;SDS011;62796;42.654;23.316;2023-07-20T00:20:29;7.43;;;2.80;;
29196;SDS011;62796;42.654;23.316;2023-07-20T00:22:54;9.63;;;3.42;;
29196;SDS011;62796;42.654;23.316;2023-07-20T00:25:22;16.48;;;4.05;;
29196;SDS011;62796;42.654;23.316;2023-07-20T00:27:48;7.85;;;3.40;;
29196;SDS011;62796;42.654;23.316;2023-07-20T00:30:13;8.27;;;3.17;;
29196;SDS011;62796;42.654;23.316;2023-07-20T00:32:39;10.13;;;3.65;;
29196;SDS011;62796;42.654;23.316;2023-07-20T00:35:04;7.47;;;3.35;;
29196;SDS011;62796;42.654;23.316;2023-07-20T00:37:30;9.27;;;3.08;;
29196;SDS011;62796;42.654;23.316;2023-07-20T00:39:56;9.82;;;3.10;;
29196;SDS011;62796;42.654;23.316;2023-07-20T00:42:22;9.30;;;3.40;;
29196;SDS011;62796;42.654;23.316;2023-07-20T00:44:47;8.93;;;3.30;;
29196;SDS011;62796;42.654;23.316;2023-07-20T00:47:12;10.10;;;3.72;;
29196;SDS011;62796;42.654;23.316;2023-07-20T00:49:38;12.18;;;3.22;;
29196;SDS011;62796;42.654;23.316;2023-07-20T00:52:05;14.10;;;3.47;;
29196;SDS011;62796;42.654;23.316;2023-07-20T00:54:32;9.45;;;3.38;;
29196;SDS011;62796;42.654;23.316;2023-07-20T00:56:59;8.13;;;3.30;;
29196;SDS011;62796;42.654;23.316;2023-07-20T00:59:26;10.45;;;3.42;;
29196;SDS011;62796;42.654;23.316;2023-07-20T01:01:52;13.95;;;3.10;;
29196;SDS011;62796;42.654;23.316;2023-07-20T01:04:17;12.40;;;3.30;;
29196;SDS011;62796;42.654;23.316;2023-07-20T01:09:55;11.18;;;3.20;;
29196;SDS011;62796;42.654;23.316;2023-07-20T01:12:23;7.47;;;3.38;;
29196;SDS011;62796;42.654;23.316;2023-07-20T01:14:53;11.23;;;3.70;;
29196;SDS011;62796;42.654;23.316;2023-07-20T01:17:19;10.57;;;3.05;;
29196;SDS011;62796;42.654;23.316;2023-07-20T01:19:44;13.63;;;3.65;;
29196;SDS011;62796;42.654;23.316;2023-07-20T01:33:05;8.82;;;2.95;;
29196;SDS011;62796;42.654;23.316;2023-07-20T01:35:32;10.13;;;3.53;;
29196;SDS011;62796;42.654;23.316;2023-07-20T01:37:59;5.50;;;2.95;;
29196;SDS011;62796;42.654;23.316;2023-07-20T01:40:25;9.23;;;3.25;;
29196;SDS011;62796;42.654;23.316;2023-07-20T01:42:52;10.10;;;3.30;;
29196;SDS011;62796;42.654;23.316;2023-07-20T01:45:18;11.07;;;2.95;;
29196;SDS011;62796;42.654;23.316;2023-07-20T01:47:44;11.18;;;3.08;;
29196;SDS011;62796;42.654;23.316;2023-07-20T01:50:10;10.93;;;3.15;;
29196;SDS011;62796;42.654;23.316;2023-07-20T01:52:35;9.13;;;3.40;;
29196;SDS011;62796;42.654;23.316;2023-07-20T01:55:00;6.38;;;3.00;;
29196;SDS011;62796;42.654;23.316;2023-07-20T01:57:26;10.20;;;3.60;;
29196;SDS011;62796;42.654;23.316;2023-07-20T01:59:52;9.48;;;3.28;;
29196;SDS011;62796;42.654;23.316;2023-07-20T02:02:17;14.23;;;3.85;;
29196;SDS011;62796;42.654;23.316;2023-07-20T02:04:43;7.20;;;3.30;;
29196;SDS011;62796;42.654;23.316;2023-07-20T02:07:09;10.57;;;3.63;;
29196;SDS011;62796;42.654;23.316;2023-07-20T02:09:34;9.80;;;3.88;;
29196;SDS011;62796;42.654;23.316;2023-07-20T02:12:00;14.43;;;4.00;;
29196;SDS011;62796;42.654;23.316;2023-07-20T02:14:25;9.70;;;3.28;;
29196;SDS011;62796;42.654;23.316;2023-07-20T02:16:51;8.68;;;3.65;;
29196;SDS011;62796;42.654;23.316;2023-07-20T02:19:17;9.75;;;3.83;;
29196;SDS011;62796;42.654;23.316;2023-07-20T02:21:43;7.45;;;3.55;;
29196;SDS011;62796;42.654;23.316;2023-07-20T02:24:08;8.10;;;3.45;;
29196;SDS011;62796;42.654;23.316;2023-07-20T02:26:34;10.38;;;3.40;;
29196;SDS011;62796;42.654;23.316;2023-07-20T02:28:59;8.48;;;3.53;;
29196;SDS011;62796;42.654;23.316;2023-07-20T02:31:25;7.53;;;3.47;;
29196;SDS011;62796;42.654;23.316;2023-07-20T02:33:50;11.10;;;3.30;;
29196;SDS011;62796;42.654;23.316;2023-07-20T02:36:16;9.40;;;3.97;;
29196;SDS011;62796;42.654;23.316;2023-07-20T02:38:41;13.77;;;3.60;;
29196;SDS011;62796;42.654;23.316;2023-07-20T02:41:07;12.82;;;3.40;;
29196;SDS011;62796;42.654;23.316;2023-07-20T02:43:32;15.40;;;4.35;;
29196;SDS011;62796;42.654;23.316;2023-07-20T02:45:58;12.50;;;3.90;;
29196;SDS011;62796;42.654;23.316;2023-07-20T02:48:23;11.82;;;4.00;;
29196;SDS011;62796;42.654;23.316;2023-07-20T02:50:49;11.30;;;4.15;;
29196;SDS011;62796;42.654;23.316;2023-07-20T02:53:14;9.40;;;3.95;;
29196;SDS011;62796;42.654;23.316;2023-07-20T02:55:40;12.05;;;3.70;;
29196;SDS011;62796;42.654;23.316;2023-07-20T02:58:05;9.25;;;3.40;;
29196;SDS011;62796;42.654;23.316;2023-07-20T03:00:30;9.85;;;3.65;;
29196;SDS011;62796;42.654;23.316;2023-07-20T03:02:56;13.60;;;3.50;;
29196;SDS011;62796;42.654;23.316;2023-07-20T03:05:22;27.33;;;5.65;;
29196;SDS011;62796;42.654;23.316;2023-07-20T03:07:50;21.35;;;5.53;;
29196;SDS011;62796;42.654;23.316;2023-07-20T03:10:16;18.65;;;5.15;;
29196;SDS011;62796;42.654;23.316;2023-07-20T03:12:41;12.38;;;4.20;;
29196;SDS011;62796;42.654;23.316;2023-07-20T03:15:07;18.70;;;4.35;;
29196;SDS011;62796;42.654;23.316;2023-07-20T03:17:33;8.15;;;3.55;;
29196;SDS011;62796;42.654;23.316;2023-07-20T03:19:58;8.75;;;4.20;;
29196;SDS011;62796;42.654;23.316;2023-07-20T03:22:24;8.73;;;3.78;;
29196;SDS011;62796;42.654;23.316;2023-07-20T03:24:50;15.23;;;4.50;;
29196;SDS011;62796;42.654;23.316;2023-07-20T03:27:16;11.73;;;4.10;;
29196;SDS011;62796;42.654;23.316;2023-07-20T03:29:41;11.32;;;4.45;;
29196;SDS011;62796;42.654;23.316;2023-07-20T03:32:07;9.90;;;4.45;;
29196;SDS011;62796;42.654;23.316;2023-07-20T03:34:32;7.50;;;3.58;;
29196;SDS011;62796;42.654;23.316;2023-07-20T03:36:58;10.80;;;4.22;;
29196;SDS011;62796;42.654;23.316;2023-07-20T03:39:24;16.73;;;4.95;;
29196;SDS011;62796;42.654;23.316;2023-07-20T03:41:49;14.82;;;5.45;;
29196;SDS011;62796;42.654;23.316;2023-07-20T03:44:15;17.60;;;5.57;;
29196;SDS011;62796;42.654;23.316;2023-07-20T03:46:41;15.10;;;5.72;;
29196;SDS011;62796;42.654;23.316;2023-07-20T03:49:06;13.50;;;4.70;;
29196;SDS011;62796;42.654;23.316;2023-07-20T03:51:33;12.27;;;4.03;;
29196;SDS011;62796;42.654;23.316;2023-07-20T03:53:59;16.67;;;4.80;;
29196;SDS011;62796;42.654;23.316;2023-07-20T03:56:25;16.55;;;5.28;;
29196;SDS011;62796;42.654;23.316;2023-07-20T03:58:50;12.30;;;4.90;;
29196;SDS011;62796;42.654;23.316;2023-07-20T04:01:16;21.63;;;4.80;;
29196;SDS011;62796;42.654;23.316;2023-07-20T04:03:44;11.68;;;4.95;;
29196;SDS011;62796;42.654;23.316;2023-07-20T04:06:09;21.95;;;5.07;;
29196;SDS011;62796;42.654;23.316;2023-07-20T04:08:35;17.85;;;4.85;;
29196;SDS011;62796;42.654;23.316;2023-07-20T04:11:02;10.23;;;4.30;;
29196;SDS011;62796;42.654;23.316;2023-07-20T04:13:27;13.27;;;4.63;;
29196;SDS011;62796;42.654;23.316;2023-07-20T04:15:53;12.50;;;4.65;;
29196;SDS011;62796;42.654;23.316;2023-07-20T04:18:20;14.55;;;5.10;;
29196;SDS011;62796;42.654;23.316;2023-07-20T04:20:45;10.18;;;4.28;;
29196;SDS011;62796;42.654;23.316;2023-07-20T04:23:10;10.35;;;4.00;;
29196;SDS011;62796;42.654;23.316;2023-07-20T04:25:36;10.98;;;4.35;;
29196;SDS011;62796;42.654;23.316;2023-07-20T04:28:09;8.65;;;3.47;;
29196;SDS011;62796;42.654;23.316;2023-07-20T04:30:35;8.85;;;3.80;;
29196;SDS011;62796;42.654;23.316;2023-07-20T04:33:01;11.30;;;4.07;;
29196;SDS011;62796;42.654;23.316;2023-07-20T04:38:13;10.98;;;3.95;;
29196;SDS011;62796;42.654;23.316;2023-07-20T04:40:42;16.00;;;4.85;;
29196;SDS011;62796;42.654;23.316;2023-07-20T04:43:09;11.48;;;4.03;;
29196;SDS011;62796;42.654;23.316;2023-07-20T04:45:34;12.23;;;4.63;;
29196;SDS011;62796;42.654;23.316;2023-07-20T04:48:00;11.32;;;4.07;;
29196;SDS011;62796;42.654;23.316;2023-07-20T04:50:25;11.20;;;4.28;;
29196;SDS011;62796;42.654;23.316;2023-07-20T04:52:51;8.70;;;4.18;;
29196;SDS011;62796;42.654;23.316;2023-07-20T04:55:18;16.88;;;5.03;;
29196;SDS011;62796;42.654;23.316;2023-07-20T04:57:43;14.57;;;5.00;;
29196;SDS011;62796;42.654;23.316;2023-07-20T05:00:09;12.02;;;5.50;;
29196;SDS011;62796;42.654;23.316;2023-07-20T05:02:36;19.02;;;4.82;;
29196;SDS011;62796;42.654;23.316;2023-07-20T05:05:03;10.77;;;4.40;;
29196;SDS011;62796;42.654;23.316;2023-07-20T05:07:30;13.52;;;4.93;;
29196;SDS011;62796;42.654;23.316;2023-07-20T05:09:56;10.20;;;4.10;;
29196;SDS011;62796;42.654;23.316;2023-07-20T05:12:22;8.20;;;4.80;;
29196;SDS011;62796;42.654;23.316;2023-07-20T05:14:47;11.23;;;4.22;;
29196;SDS011;62796;42.654;23.316;2023-07-20T05:17:12;14.45;;;4.70;;
29196;SDS011;62796;42.654;23.316;2023-07-20T05:19:38;10.07;;;4.70;;
29196;SDS011;62796;42.654;23.316;2023-07-20T05:22:03;15.48;;;5.38;;
29196;SDS011;62796;42.654;23.316;2023-07-20T05:24:30;19.60;;;5.05;;
29196;SDS011;62796;42.654;23.316;2023-07-20T05:26:56;14.48;;;4.68;;
29196;SDS011;62796;42.654;23.316;2023-07-20T05:29:21;16.98;;;5.00;;
29196;SDS011;62796;42.654;23.316;2023-07-20T05:31:47;13.18;;;4.38;;
29196;SDS011;62796;42.654;23.316;2023-07-20T05:34:12;13.30;;;4.25;;
29196;SDS011;62796;42.654;23.316;2023-07-20T05:39:35;9.63;;;4.10;;
29196;SDS011;62796;42.654;23.316;2023-07-20T05:42:01;12.85;;;3.70;;
29196;SDS011;62796;42.654;23.316;2023-07-20T05:44:26;14.45;;;4.25;;
29196;SDS011;62796;42.654;23.316;2023-07-20T05:46:52;10.13;;;4.30;;
29196;SDS011;62796;42.654;23.316;2023-07-20T05:49:17;10.60;;;4.43;;
29196;SDS011;62796;42.654;23.316;2023-07-20T05:51:42;11.25;;;4.25;;
29196;SDS011;62796;42.654;23.316;2023-07-20T05:54:08;11.10;;;4.30;;
29196;SDS011;62796;42.654;23.316;2023-07-20T05:56:33;12.70;;;4.38;;
29196;SDS011;62796;42.654;23.316;2023-07-20T05:58:59;15.38;;;4.18;;
29196;SDS011;62796;42.654;23.316;2023-07-20T06:01:24;11.63;;;4.10;;
29196;SDS011;62796;42.654;23.316;2023-07-20T06:03:52;11.13;;;3.70;;
29196;SDS011;62796;42.654;23.316;2023-07-20T06:06:18;16.73;;;4.65;;
29196;SDS011;62796;42.654;23.316;2023-07-20T06:08:43;10.20;;;3.85;;
29196;SDS011;62796;42.654;23.316;2023-07-20T06:11:09;8.73;;;4.05;;
29196;SDS011;62796;42.654;23.316;2023-07-20T06:13:35;9.57;;;4.05;;
29196;SDS011;62796;42.654;23.316;2023-07-20T06:16:00;15.20;;;4.60;;
29196;SDS011;62796;42.654;23.316;2023-07-20T06:18:26;14.13;;;5.00;;
29196;SDS011;62796;42.654;23.316;2023-07-20T06:20:52;13.13;;;4.45;;
29196;SDS011;62796;42.654;23.316;2023-07-20T06:23:18;16.45;;;5.63;;
29196;SDS011;62796;42.654;23.316;2023-07-20T06:25:44;14.07;;;4.45;;
29196;SDS011;62796;42.654;23.316;2023-07-20T06:28:10;11.18;;;3.83;;
29196;SDS011;62796;42.654;23.316;2023-07-20T06:30:35;8.57;;;3.55;;
29196;SDS011;62796;42.654;23.316;2023-07-20T06:33:01;11.98;;;4.45;;
29196;SDS011;62796;42.654;23.316;2023-07-20T06:35:26;10.65;;;3.90;;
29196;SDS011;62796;42.654;23.316;2023-07-20T06:37:52;9.52;;;4.03;;
29196;SDS011;62796;42.654;23.316;2023-07-20T06:40:17;12.43;;;3.72;;
29196;SDS011;62796;42.654;23.316;2023-07-20T06:42:43;10.52;;;4.10;;
29196;SDS011;62796;42.654;23.316;2023-07-20T06:45:09;11.75;;;4.28;;
29196;SDS011;62796;42.654;23.316;2023-07-20T06:47:35;13.88;;;4.03;;
29196;SDS011;62796;42.654;23.316;2023-07-20T06:50:00;11.57;;;3.97;;
29196;SDS011;62796;42.654;23.316;2023-07-20T06:52:25;14.80;;;4.35;;
29196;SDS011;62796;42.654;23.316;2023-07-20T06:54:51;18.05;;;4.30;;
29196;SDS011;62796;42.654;23.316;2023-07-20T06:57:16;21.60;;;5.57;;
29196;SDS011;62796;42.654;23.316;2023-07-20T06:59:41;14.45;;;4.20;;
29196;SDS011;62796;42.654;23.316;2023-07-20T07:02:07;12.15;;;4.07;;
29196;SDS011;62796;42.654;23.316;2023-07-20T07:04:33;11.60;;;4.43;;
29196;SDS011;62796;42.654;23.316;2023-07-20T07:06:59;19.30;;;4.47;;
29196;SDS011;62796;42.654;23.316;2023-07-20T07:09:25;21.02;;;5.28;;
29196;SDS011;62796;42.654;23.316;2023-07-20T07:11:50;19.63;;;4.15;;
29196;SDS011;62796;42.654;23.316;2023-07-20T07:14:18;19.77;;;4.93;;
29196;SDS011;62796;42.654;23.316;2023-07-20T07:16:45;15.98;;;4.50;;
29196;SDS011;62796;42.654;23.316;2023-07-20T07:19:10;19.48;;;4.65;;
29196;SDS011;62796;42.654;23.316;2023-07-20T07:21:35;13.73;;;4.78;;
29196;SDS011;62796;42.654;23.316;2023-07-20T07:24:01;15.23;;;5.30;;
29196;SDS011;62796;42.654;23.316;2023-07-20T07:26:26;20.15;;;6.38;;
29196;SDS011;62796;42.654;23.316;2023-07-20T07:28:52;18.88;;;6.70;;
29196;SDS011;62796;42.654;23.316;2023-07-20T07:31:17;15.23;;;5.45;;
29196;SDS011;62796;42.654;23.316;2023-07-20T07:33:42;14.80;;;6.03;;
29196;SDS011;62796;42.654;23.316;2023-07-20T07:36:08;22.65;;;5.93;;
29196;SDS011;62796;42.654;23.316;2023-07-20T07:38:33;18.80;;;6.38;;
29196;SDS011;62796;42.654;23.316;2023-07-20T07:40:59;19.80;;;6.45;;
29196;SDS011;62796;42.654;23.316;2023-07-20T07:43:24;24.67;;;7.13;;
29196;SDS011;62796;42.654;23.316;2023-07-20T07:45:50;16.33;;;6.18;;
29196;SDS011;62796;42.654;23.316;2023-07-20T07:48:15;37.15;;;13.30;;
29196;SDS011;62796;42.654;23.316;2023-07-20T07:50:41;22.08;;;8.18;;
29196;SDS011;62796;42.654;23.316;2023-07-20T07:53:07;20.05;;;7.10;;
29196;SDS011;62796;42.654;23.316;2023-07-20T07:55:33;23.52;;;6.72;;
29196;SDS011;62796;42.654;23.316;2023-07-20T07:58:00;14.63;;;6.43;;
29196;SDS011;62796;42.654;23.316;2023-07-20T08:00:25;22.85;;;10.55;;
29196;SDS011;62796;42.654;23.316;2023-07-20T08:02:51;21.60;;;9.32;;
29196;SDS011;62796;42.654;23.316;2023-07-20T08:05:16;16.55;;;6.93;;
29196;SDS011;62796;42.654;23.316;2023-07-20T08:07:42;23.92;;;7.00;;
29196;SDS011;62796;42.654;23.316;2023-07-20T08:10:08;48.90;;;9.73;;
29196;SDS011;62796;42.654;23.316;2023-07-20T08:12:34;20.20;;;7.18;;
29196;SDS011;62796;42.654;23.316;2023-07-20T08:14:59;38.28;;;7.57;;
29196;SDS011;62796;42.654;23.316;2023-07-20T08:17:25;20.90;;;6.20;;
29196;SDS011;62796;42.654;23.316;2023-07-20T08:19:50;27.10;;;5.32;;
29196;SDS011;62796;42.654;23.316;2023-07-20T08:22:16;19.13;;;5.32;;
29196;SDS011;62796;42.654;23.316;2023-07-20T08:24:42;11.45;;;4.68;;
29196;SDS011;62796;42.654;23.316;2023-07-20T08:27:08;35.35;;;5.60;;
29196;SDS011;62796;42.654;23.316;2023-07-20T08:29:34;18.92;;;4.45;;
29196;SDS011;62796;42.654;23.316;2023-07-20T08:32:00;17.00;;;7.80;;
29196;SDS011;62796;42.654;23.316;2023-07-20T08:34:25;16.45;;;4.22;;
29196;SDS011;62796;42.654;23.316;2023-07-20T08:36:51;15.43;;;4.53;;
29196;SDS011;62796;42.654;23.316;2023-07-20T08:39:16;23.20;;;3.97;;
29196;SDS011;62796;42.654;23.316;2023-07-20T08:41:46;29.10;;;4.43;;
29196;SDS011;62796;42.654;23.316;2023-07-20T08:44:11;9.40;;;3.05;;
29196;SDS011;62796;42.654;23.316;2023-07-20T08:46:38;11.77;;;3.47;;
29196;SDS011;62796;42.654;23.316;2023-07-20T08:49:05;13.35;;;3.90;;
29196;SDS011;62796;42.654;23.316;2023-07-20T08:51:31;19.48;;;4.22;;
29196;SDS011;62796;42.654;23.316;2023-07-20T08:53:58;13.20;;;3.75;;
29196;SDS011;62796;42.654;23.316;2023-07-20T08:56:25;21.70;;;4.28;;
29196;SDS011;62796;42.654;23.316;2023-07-20T08:58:51;14.63;;;3.80;;
29196;SDS011;62796;42.654;23.316;2023-07-20T09:01:18;13.90;;;3.67;;
29196;SDS011;62796;42.654;23.316;2023-07-20T09:03:44;16.13;;;3.83;;
29196;SDS011;62796;42.654;23.316;2023-07-20T09:06:11;16.15;;;4.18;;
29196;SDS011;62796;42.654;23.316;2023-07-20T09:08:40;12.88;;;3.20;;
29196;SDS011;62796;42.654;23.316;2023-07-20T09:11:06;9.60;;;2.97;;
29196;SDS011;62796;42.654;23.316;2023-07-20T09:13:32;19.42;;;3.60;;
29196;SDS011;62796;42.654;23.316;2023-07-20T09:15:58;38.78;;;4.70;;
29196;SDS011;62796;42.654;23.316;2023-07-20T09:18:28;11.43;;;3.30;;
29196;SDS011;62796;42.654;23.316;2023-07-20T09:21:01;19.90;;;4.28;;
29196;SDS011;62796;42.654;23.316;2023-07-20T09:23:34;11.40;;;3.60;;
29196;SDS011;62796;42.654;23.316;2023-07-20T09:26:10;12.65;;;3.35;;
29196;SDS011;62796;42.654;23.316;2023-07-20T09:28:58;8.33;;;3.20;;
29196;SDS011;62796;42.654;23.316;2023-07-20T09:31:22;13.52;;;3.40;;
29196;SDS011;62796;42.654;23.316;2023-07-20T09:33:48;13.77;;;3.28;;
29196;SDS011;62796;42.654;23.316;2023-07-20T09:36:16;15.55;;;3.72;;
29196;SDS011;62796;42.654;23.316;2023-07-20T09:38:42;17.38;;;3.80;;
29196;SDS011;62796;42.654;23.316;2023-07-20T09:41:08;6.95;;;3.22;;
29196;SDS011;62796;42.654;23.316;2023-07-20T09:43:38;13.20;;;3.45;;
29196;SDS011;62796;42.654;23.316;2023-07-20T09:46:04;12.23;;;3.72;;
29196;SDS011;62796;42.654;23.316;2023-07-20T09:48:30;12.77;;;3.08;;
29196;SDS011;62796;42.654;23.316;2023-07-20T09:50:55;15.32;;;3.72;;
29196;SDS011;62796;42.654;23.316;2023-07-20T09:53:21;13.55;;;3.65;;
29196;SDS011;62796;42.654;23.316;2023-07-20T09:55:49;13.27;;;3.55;;
29196;SDS011;62796;42.654;23.316;2023-07-20T09:58:15;11.15;;;3.45;;
29196;SDS011;62796;42.654;23.316;2023-07-20T10:00:42;12.48;;;3.08;;
29196;SDS011;62796;42.654;23.316;2023-07-20T10:03:18;17.00;;;4.10;;
29196;SDS011;62796;42.654;23.316;2023-07-20T10:05:56;13.60;;;3.72;;
29196;SDS011;62796;42.654;23.316;2023-07-20T10:08:28;10.73;;;3.63;;
29196;SDS011;62796;42.654;23.316;2023-07-20T10:10:55;9.00;;;4.47;;
29196;SDS011;62796;42.654;23.316;2023-07-20T10:13:26;8.80;;;3.30;;
29196;SDS011;62796;42.654;23.316;2023-07-20T10:16:11;12.43;;;3.60;;
29196;SDS011;62796;42.654;23.316;2023-07-20T10:21:56;27.33;;;4.63;;
29196;SDS011;62796;42.654;23.316;2023-07-20T10:24:28;12.57;;;3.80;;
29196;SDS011;62796;42.654;23.316;2023-07-20T10:26:56;17.38;;;4.20;;
29196;SDS011;62796;42.654;23.316;2023-07-20T10:29:22;13.00;;;3.65;;
29196;SDS011;62796;42.654;23.316;2023-07-20T10:31:49;11.50;;;3.70;;
29196;SDS011;62796;42.654;23.316;2023-07-20T10:34:15;10.30;;;2.97;;
29196;SDS011;62796;42.654;23.316;2023-07-20T10:36:44;10.27;;;3.42;;
29196;SDS011;62796;42.654;23.316;2023-07-20T10:39:26;14.32;;;3.15;;
29196;SDS011;62796;42.654;23.316;2023-07-20T10:42:03;13.30;;;2.88;;
29196;SDS011;62796;42.654;23.316;2023-07-20T10:44:31;15.75;;;3.35;;
29196;SDS011;62796;42.654;23.316;2023-07-20T10:47:03;73.28;;;7.93;;
29196;SDS011;62796;42.654;23.316;2023-07-20T10:49:34;9.52;;;3.38;;
29196;SDS011;62796;42.654;23.316;2023-07-20T10:52:03;18.67;;;6.20;;
29196;SDS011;62796;42.654;23.316;2023-07-20T10:56:55;18.10;;;4.05;;
29196;SDS011;62796;42.654;23.316;2023-07-20T11:01:51;17.90;;;4.57;;
29196;SDS011;62796;42.654;23.316;2023-07-20T11:04:21;13.25;;;3.70;;
29196;SDS011;62796;42.654;23.316;2023-07-20T11:07:05;19.17;;;4.45;;
29196;SDS011;62796;42.654;23.316;2023-07-20T11:09:34;6.72;;;4.15;;
29196;SDS011;62796;42.654;23.316;2023-07-20T11:12:10;15.50;;;3.88;;
29196;SDS011;62796;42.654;23.316;2023-07-20T11:14:42;20.00;;;4.90;;
29196;SDS011;62796;42.654;23.316;2023-07-20T11:17:12;17.23;;;4.43;;
29196;SDS011;62796;42.654;23.316;2023-07-20T11:19:39;13.68;;;4.70;;
29196;SDS011;62796;42.654;23.316;2023-07-20T11:22:05;21.15;;;5.03;;
29196;SDS011;62796;42.654;23.316;2023-07-20T11:24:38;9.50;;;4.45;;
29196;SDS011;62796;42.654;23.316;2023-07-20T11:27:04;12.30;;;3.90;;
29196;SDS011;62796;42.654;23.316;2023-07-20T11:29:30;12.55;;;3.58;;
29196;SDS011;62796;42.654;23.316;2023-07-20T11:31:55;21.05;;;5.07;;
29196;SDS011;62796;42.654;23.316;2023-07-20T11:34:21;15.88;;;4.32;;
29196;SDS011;62796;42.654;23.316;2023-07-20T11:36:48;11.32;;;4.25;;
29196;SDS011;62796;42.654;23.316;2023-07-20T11:39:18;14.13;;;4.32;;
29196;SDS011;62796;42.654;23.316;2023-07-20T11:41:50;20.40;;;5.97;;
29196;SDS011;62796;42.654;23.316;2023-07-20T11:44:17;16.98;;;6.05;;
29196;SDS011;62796;42.654;23.316;2023-07-20T11:46:43;20.75;;;6.38;;
29196;SDS011;62796;42.654;23.316;2023-07-20T11:49:09;13.30;;;6.10;;
29196;SDS011;62796;42.654;23.316;2023-07-20T11:51:35;14.45;;;5.78;;
29196;SDS011;62796;42.654;23.316;2023-07-20T11:54:03;14.48;;;5.32;;
29196;SDS011;62796;42.654;23.316;2023-07-20T11:56:30;13.02;;;6.10;;
29196;SDS011;62796;42.654;23.316;2023-07-20T11:58:56;14.77;;;6.30;;
29196;SDS011;62796;42.654;23.316;2023-07-20T12:01:24;15.82;;;5.78;;
29196;SDS011;62796;42.654;23.316;2023-07-20T12:03:51;14.10;;;5.45;;
29196;SDS011;62796;42.654;23.316;2023-07-20T12:06:16;10.32;;;5.38;;
29196;SDS011;62796;42.654;23.316;2023-07-20T12:08:42;14.63;;;5.18;;
29196;SDS011;62796;42.654;23.316;2023-07-20T12:11:09;8.98;;;4.70;;
29196;SDS011;62796;42.654;23.316;2023-07-20T12:13:35;18.02;;;5.20;;
29196;SDS011;62796;42.654;23.316;2023-07-20T12:16:09;13.80;;;5.43;;
29196;SDS011;62796;42.654;23.316;2023-07-20T12:18:44;14.48;;;5.00;;
29196;SDS011;62796;42.654;23.316;2023-07-20T12:21:10;11.68;;;4.10;;
29196;SDS011;62796;42.654;23.316;2023-07-20T12:23:39;12.63;;;4.40;;
29196;SDS011;62796;42.654;23.316;2023-07-20T12:26:06;10.73;;;4.00;;
29196;SDS011;62796;42.654;23.316;2023-07-20T12:28:33;13.43;;;3.83;;
29196;SDS011;62796;42.654;23.316;2023-07-20T12:30:58;11.02;;;3.35;;
29196;SDS011;62796;42.654;23.316;2023-07-20T12:33:23;8.77;;;3.85;;
29196;SDS011;62796;42.654;23.316;2023-07-20T12:35:49;9.57;;;3.40;;
29196;SDS011;62796;42.654;23.316;2023-07-20T12:38:15;14.10;;;4.30;;
29196;SDS011;62796;42.654;23.316;2023-07-20T12:40:41;9.70;;;3.83;;
29196;SDS011;62796;42.654;23.316;2023-07-20T12:43:07;19.08;;;3.83;;
29196;SDS011;62796;42.654;23.316;2023-07-20T12:45:32;19.08;;;4.03;;
29196;SDS011;62796;42.654;23.316;2023-07-20T12:47:58;12.38;;;4.18;;
29196;SDS011;62796;42.654;23.316;2023-07-20T12:50:24;15.50;;;4.03;;
29196;SDS011;62796;42.654;23.316;2023-07-20T12:52:49;21.75;;;4.18;;
29196;SDS011;62796;42.654;23.316;2023-07-20T12:55:14;14.93;;;3.75;;
29196;SDS011;62796;42.654;23.316;2023-07-20T12:57:40;13.77;;;3.95;;
29196;SDS011;62796;42.654;23.316;2023-07-20T13:00:07;10.35;;;3.60;;
29196;SDS011;62796;42.654;23.316;2023-07-20T13:02:34;13.57;;;3.40;;
29196;SDS011;62796;42.654;23.316;2023-07-20T13:05:00;14.30;;;3.55;;
29196;SDS011;62796;42.654;23.316;2023-07-20T13:07:32;14.80;;;3.90;;
29196;SDS011;62796;42.654;23.316;2023-07-20T13:09:59;10.70;;;3.42;;
29196;SDS011;62796;42.654;23.316;2023-07-20T13:12:26;9.80;;;3.50;;
29196;SDS011;62796;42.654;23.316;2023-07-20T13:14:52;9.43;;;3.75;;
29196;SDS011;62796;42.654;23.316;2023-07-20T13:17:18;15.60;;;4.38;;
29196;SDS011;62796;42.654;23.316;2023-07-20T13:19:43;11.30;;;3.83;;
29196;SDS011;62796;42.654;23.316;2023-07-20T13:22:08;12.73;;;3.75;;
29196;SDS011;62796;42.654;23.316;2023-07-20T13:24:34;11.40;;;4.40;;
29196;SDS011;62796;42.654;23.316;2023-07-20T13:26:59;12.50;;;4.05;;
29196;SDS011;62796;42.654;23.316;2023-07-20T13:29:25;12.65;;;3.50;;
29196;SDS011;62796;42.654;23.316;2023-07-20T13:31:50;15.77;;;4.43;;
29196;SDS011;62796;42.654;23.316;2023-07-20T13:34:15;9.70;;;4.05;;
29196;SDS011;62796;42.654;23.316;2023-07-20T13:36:41;12.18;;;3.30;;
29196;SDS011;62796;42.654;23.316;2023-07-20T13:39:06;12.48;;;3.08;;
29196;SDS011;62796;42.654;23.316;2023-07-20T13:41:32;10.50;;;3.50;;
29196;SDS011;62796;42.654;23.316;2023-07-20T13:43:58;22.55;;;4.13;;
29196;SDS011;62796;42.654;23.316;2023-07-20T13:46:23;13.60;;;3.53;;
29196;SDS011;62796;42.654;23.316;2023-07-20T13:48:49;10.15;;;3.92;;
29196;SDS011;62796;42.654;23.316;2023-07-20T13:51:14;12.88;;;3.88;;
29196;SDS011;62796;42.654;23.316;2023-07-20T13:53:39;12.98;;;4.32;;
29196;SDS011;62796;42.654;23.316;2023-07-20T13:56:05;13.00;;;3.83;;
29196;SDS011;62796;42.654;23.316;2023-07-20T13:58:32;16.13;;;3.90;;
29196;SDS011;62796;42.654;23.316;2023-07-20T14:00:58;22.27;;;3.88;;
29196;SDS011;62796;42.654;23.316;2023-07-20T14:03:23;29.20;;;4.00;;
29196;SDS011;62796;42.654;23.316;2023-07-20T14:05:49;13.82;;;3.83;;
29196;SDS011;62796;42.654;23.316;2023-07-20T14:08:15;28.20;;;4.93;;
29196;SDS011;62796;42.654;23.316;2023-07-20T14:10:40;43.20;;;5.95;;
29196;SDS011;62796;42.654;23.316;2023-07-20T14:13:06;14.73;;;3.58;;
29196;SDS011;62796;42.654;23.316;2023-07-20T14:15:32;10.23;;;4.10;;
29196;SDS011;62796;42.654;23.316;2023-07-20T14:17:59;16.05;;;4.05;;
29196;SDS011;62796;42.654;23.316;2023-07-20T14:20:25;19.75;;;4.70;;
29196;SDS011;62796;42.654;23.316;2023-07-20T14:22:50;11.68;;;4.20;;
29196;SDS011;62796;42.654;23.316;2023-07-20T14:25:15;14.70;;;4.60;;
29196;SDS011;62796;42.654;23.316;2023-07-20T14:27:41;10.35;;;3.95;;
29196;SDS011;62796;42.654;23.316;2023-07-20T14:30:06;19.33;;;3.70;;
29196;SDS011;62796;42.654;23.316;2023-07-20T14:32:34;17.95;;;4.10;;
29196;SDS011;62796;42.654;23.316;2023-07-20T14:34:59;15.35;;;3.92;;
29196;SDS011;62796;42.654;23.316;2023-07-20T14:37:25;12.52;;;4.15;;
29196;SDS011;62796;42.654;23.316;2023-07-20T14:39:50;14.98;;;4.63;;
29196;SDS011;62796;42.654;23.316;2023-07-20T14:42:15;18.27;;;3.55;;
29196;SDS011;62796;42.654;23.316;2023-07-20T14:44:41;12.75;;;3.58;;
29196;SDS011;62796;42.654;23.316;2023-07-20T14:47:06;17.40;;;3.60;;